• Join FlightAware (Why Join?)
  • Login
  • US Flag 
12:24PM EST


 

Airport Tracker/Info


-or-


 

Live Flight TrackerFlight Track Log ✈ UCA4800 ✈ 26-Aug-2013 ✈ KEWR - KROC

Flight Track Log - Related Links

Times and Time Zones

All times are in EDT time to prevent confusion due to time zone crossing. See the UCA4800 flight status page for this flight to view local times or setup timezone preferences in your user account.

Time Position Orientation Groundspeed Altitude Reporting Facility
EDT Latitude Longitude Course Direction KTS MPH feet Rate Location/Type
08:46AM 41.6137 -75.4496 314° West  Level Estimated
08:47AM 41.6518 -75.5038 313° West  Level Estimated
08:48AM 41.6898 -75.5580 313° West  Level Estimated
08:49AM 41.7279 -75.6123 313° West  Level Estimated
08:50AM 41.7659 -75.6667 313° West  Level Estimated
08:51AM 41.8038 -75.7211 313° West  Level Estimated
08:52AM 41.8418 -75.7756 313° West  Level Estimated
08:53AM 41.8797 -75.8301 313° West  Level Estimated
08:54AM 41.9176 -75.8847 313° West  Level Estimated
08:55AM 41.9554 -75.9394 313° West  Level Estimated
08:56AM 41.9933 -75.9941 313° West  Level Estimated
08:57AM 42.0311 -76.0490 313° West  Level Estimated
08:58AM 42.0689 -76.1038 313° West  Level Estimated
08:59AM 42.1066 -76.1588 313° West  Level Estimated
09:00AM 42.1444 -76.2138 313° West  Level Estimated
09:01AM 42.1821 -76.2688 313° West  Level Estimated
09:02AM 42.2198 -76.3240 313° West  Level Estimated
09:03AM 42.2574 -76.3792 313° West  Level Estimated
09:04AM 42.2951 -76.4344 313° West  Level Estimated
09:05AM 42.3327 -76.4898 313° West  Level Estimated
09:06AM 42.3702 -76.5452 313° West  Level Estimated
09:07AM 42.4078 -76.6006 313° West  Level Estimated
09:08AM 42.4453 -76.6562 312° West  Level Estimated
09:09AM 42.4828 -76.7117 312° West  Level Estimated
09:10AM 42.5203 -76.7674 312° West  Level Estimated
09:11AM 42.5577 -76.8231 312° West  Level Estimated
09:12AM 42.5951 -76.8789 312° West  Level Estimated
09:13AM 42.6325 -76.9348 312° West  Level Estimated
09:14AM 42.6699 -76.9907 312° West  Level Estimated
09:15AM 42.7072 -77.0467 312° West  Level Estimated
09:16AM 42.7445 -77.1028 312° West  Level Estimated
09:17AM 42.7818 -77.1589 312° West  Level Estimated
09:18AM 42.8191 -77.2151 312° West  Level Estimated
09:19AM 42.8563 -77.2714 312° West  Level Estimated
09:20AM 42.8935 -77.3277 312° West  Level Estimated
09:21AM 42.9307 -77.3841 312° West  Level Estimated
09:22AM 42.9678 -77.4406 312° West  Level Estimated
09:23AM 43.0049 -77.4971 312° West  Level Estimated
09:24AM 43.0420 -77.5538 312° West  Level Estimated
09:25AM 43.0791 -77.6104 312° West  Level Estimated
09:26AM 43.1161 -77.6672 312° West  Level Estimated
09:27AM 43.1191 -77.6719 312° West  Level Estimated
09:28AM 43.1191 -77.6719 14° North  Level Estimated
09:29AM 43.1191 -77.6719 14° North  Level Estimated
09:30AM 43.1191 -77.6719 14° North  Level Estimated
09:31AM 43.1191 -77.6719 14° North  Level Estimated
09:32AM 43.1191 -77.6719 14° North  Level Estimated
09:33AM 43.1191 -77.6719 14° North  Level Estimated
09:34AM 43.1191 -77.6719 14° North  Level Estimated
09:35AM 43.1191 -77.6719 14° North  Level Estimated
09:36AM 43.1191 -77.6719 14° North  Level Estimated
09:37AM 43.1191 -77.6719 14° North  Level Estimated
09:38AM 43.1191 -77.6719 14° North  Level Estimated
09:39AM 43.1191 -77.6719 14° North  Level Estimated
09:40AM 43.1191 -77.6719 14° North  Level Estimated
09:41AM 43.1191 -77.6719 14° North  Level Estimated
09:42AM 43.1191 -77.6719 14° North  Level Estimated